createdAt,value
2022-09-22T00:01:10.395Z,7.70
2022-09-22T00:03:40.288Z,7.70
2022-09-22T00:06:10.161Z,7.60
2022-09-22T00:08:40.388Z,7.60
2022-09-22T00:11:13.724Z,7.60
2022-09-22T00:13:43.512Z,7.50
2022-09-22T00:16:13.574Z,7.50
2022-09-22T00:18:41.506Z,7.50
2022-09-22T00:21:12.216Z,7.50
2022-09-22T00:23:41.143Z,7.50
2022-09-22T00:26:10.839Z,7.40
2022-09-22T00:28:39.039Z,7.40
2022-09-22T00:31:07.740Z,7.40
2022-09-22T00:33:37.935Z,7.40
2022-09-22T00:36:06.140Z,7.30
2022-09-22T00:38:34.291Z,7.30
2022-09-22T00:41:02.656Z,7.30
2022-09-22T00:43:35.156Z,7.30
2022-09-22T00:46:08.233Z,7.30
2022-09-22T00:48:44.320Z,7.30
2022-09-22T00:51:14.496Z,7.30
2022-09-22T00:53:42.978Z,7.20
2022-09-22T00:56:14.593Z,7.20
2022-09-22T00:58:46.157Z,7.20
2022-09-22T01:01:15.183Z,7.20
2022-09-22T01:03:45.049Z,7.20
2022-09-22T01:06:17.191Z,7.10
2022-09-22T01:08:46.035Z,7.10
2022-09-22T01:11:15.599Z,7.10
2022-09-22T01:13:51.567Z,7.10
2022-09-22T01:16:35.906Z,7.10
2022-09-22T01:19:37.803Z,7.10
2022-09-22T01:22:16.889Z,7.10
2022-09-22T01:24:56.275Z,7.00
2022-09-22T01:28:02.405Z,7.00
2022-09-22T01:30:37.130Z,7.00
2022-09-22T01:33:25.592Z,7.00
2022-09-22T01:36:03.817Z,6.90
2022-09-22T01:38:37.865Z,6.90
2022-09-22T01:41:09.606Z,6.90
2022-09-22T01:43:42.764Z,6.90
2022-09-22T01:46:17.270Z,6.90
2022-09-22T01:52:46.165Z,6.90
2022-09-22T01:55:22.080Z,6.80
2022-09-22T01:57:54.444Z,6.80
2022-09-22T02:00:23.028Z,6.80
2022-09-22T02:02:55.290Z,6.80
2022-09-22T02:05:29.210Z,6.80
2022-09-22T02:07:59.740Z,6.70
2022-09-22T02:10:37.668Z,6.70
2022-09-22T02:13:05.498Z,6.70
2022-09-22T02:15:51.113Z,6.70
2022-09-22T02:18:23.837Z,6.60
2022-09-22T02:20:52.670Z,6.60
2022-09-22T02:23:20.969Z,6.60
2022-09-22T02:25:49.528Z,6.60
2022-09-22T02:28:21.783Z,6.60
2022-09-22T02:31:17.586Z,6.60
2022-09-22T02:33:42.400Z,6.50
2022-09-22T02:36:35.338Z,6.50
2022-09-22T02:39:09.705Z,6.50
2022-09-22T02:41:47.093Z,6.50
2022-09-22T02:44:19.328Z,6.50
2022-09-22T02:46:53.426Z,6.50
2022-09-22T02:49:24.041Z,6.50
2022-09-22T02:51:53.276Z,6.40
2022-09-22T02:54:21.599Z,6.40
2022-09-22T02:56:49.436Z,6.40
2022-09-22T02:59:17.219Z,6.40
2022-09-22T03:01:44.986Z,6.40
2022-09-22T03:04:12.755Z,6.40
2022-09-22T03:06:41.795Z,6.40
2022-09-22T03:09:09.538Z,6.40
2022-09-22T03:11:37.326Z,6.40
2022-09-22T03:14:05.041Z,6.30
2022-09-22T03:16:32.756Z,6.30
2022-09-22T03:19:00.952Z,6.30
2022-09-22T03:21:28.684Z,6.30
2022-09-22T03:23:57.749Z,6.30
2022-09-22T03:26:25.515Z,6.30
2022-09-22T03:28:53.306Z,6.30
2022-09-22T03:31:21.048Z,6.20
2022-09-22T03:33:52.562Z,6.20
2022-09-22T03:36:20.641Z,6.20
2022-09-22T03:38:48.551Z,6.20
2022-09-22T03:41:17.597Z,6.20
2022-09-22T03:43:45.338Z,6.20
2022-09-22T03:46:14.162Z,6.20
2022-09-22T03:48:45.171Z,6.10
2022-09-22T03:51:13.379Z,6.10
2022-09-22T03:53:41.162Z,6.10
2022-09-22T03:56:10.742Z,6.10
2022-09-22T03:58:40.228Z,6.10
2022-09-22T04:01:11.208Z,6.00
2022-09-22T04:03:39.857Z,6.00
2022-09-22T04:06:08.010Z,6.00
2022-09-22T04:08:35.937Z,5.90
2022-09-22T04:11:03.916Z,6.00
2022-09-22T04:13:31.837Z,6.00
2022-09-22T04:16:00.868Z,6.00
2022-09-22T04:18:29.554Z,5.90
2022-09-22T04:20:58.749Z,6.00
2022-09-22T04:23:27.123Z,5.90
2022-09-22T04:25:55.117Z,5.90
2022-09-22T04:28:22.976Z,5.90
2022-09-22T04:30:50.734Z,5.90
2022-09-22T04:33:19.927Z,5.90
2022-09-22T04:35:49.497Z,5.90
2022-09-22T04:38:17.329Z,5.90
2022-09-22T04:40:45.906Z,5.90
2022-09-22T04:43:14.127Z,5.80
2022-09-22T04:45:45.014Z,5.80
2022-09-22T04:48:12.974Z,5.80
2022-09-22T04:50:47.162Z,5.80
2022-09-22T04:53:16.072Z,5.80
2022-09-22T04:55:43.780Z,5.80
2022-09-22T04:58:11.550Z,5.80
2022-09-22T05:00:39.449Z,5.80
2022-09-22T05:03:08.959Z,5.80
2022-09-22T05:05:36.984Z,5.80
2022-09-22T05:08:07.562Z,5.80
2022-09-22T05:10:35.726Z,5.80
2022-09-22T05:13:03.622Z,5.80
2022-09-22T05:15:33.009Z,5.80
2022-09-22T05:18:00.765Z,5.70
2022-09-22T05:20:28.460Z,5.70
2022-09-22T05:22:56.179Z,5.70
2022-09-22T05:25:25.379Z,5.70
2022-09-22T05:27:54.810Z,5.70
2022-09-22T05:30:24.696Z,5.70
2022-09-22T05:32:52.925Z,5.70
2022-09-22T05:35:22.787Z,5.70
2022-09-22T05:37:52.504Z,5.70
2022-09-22T05:40:23.641Z,5.70
2022-09-22T05:42:54.481Z,5.70
2022-09-22T05:45:22.544Z,5.70
2022-09-22T05:47:50.678Z,5.80
2022-09-22T05:50:20.058Z,5.80
2022-09-22T05:52:47.835Z,5.80
2022-09-22T05:55:15.696Z,5.90
2022-09-22T05:57:44.257Z,5.90
2022-09-22T06:00:14.133Z,5.90
2022-09-22T06:02:44.746Z,6.00
2022-09-22T06:05:15.410Z,6.00
2022-09-22T06:07:45.216Z,6.00
2022-09-22T06:10:12.974Z,6.10
2022-09-22T06:12:40.770Z,6.10
2022-09-22T06:15:09.069Z,6.10
2022-09-22T06:17:38.218Z,6.20
2022-09-22T06:20:08.388Z,6.20
2022-09-22T06:22:36.317Z,6.20
2022-09-22T06:25:04.268Z,6.30
2022-09-22T06:27:32.005Z,6.30
2022-09-22T06:29:59.717Z,6.40
2022-09-22T06:32:27.532Z,6.40
2022-09-22T06:34:57.533Z,6.50
2022-09-22T06:37:25.250Z,6.50
2022-09-22T06:39:52.956Z,6.50
2022-09-22T06:42:20.664Z,6.60
2022-09-22T06:44:48.837Z,6.60
2022-09-22T06:47:16.662Z,6.70
2022-09-22T06:49:44.398Z,6.80
2022-09-22T06:52:14.757Z,6.80
2022-09-22T06:54:42.666Z,6.90
2022-09-22T06:57:10.839Z,6.90
2022-09-22T06:59:39.002Z,7.00
2022-09-22T07:02:07.523Z,7.00
2022-09-22T07:04:35.508Z,7.10
2022-09-22T07:07:03.856Z,7.20
2022-09-22T07:09:33.016Z,7.30
2022-09-22T07:12:00.742Z,7.30
2022-09-22T07:14:29.552Z,7.40
2022-09-22T07:16:57.298Z,7.50
2022-09-22T07:19:25.089Z,7.50
2022-09-22T07:21:52.839Z,7.60
2022-09-22T07:24:20.550Z,7.70
2022-09-22T07:26:49.920Z,7.80
2022-09-22T07:29:17.686Z,7.90
2022-09-22T07:31:45.484Z,7.90
2022-09-22T07:34:13.990Z,8.00
2022-09-22T07:36:41.710Z,8.10
2022-09-22T07:39:11.465Z,8.20
2022-09-22T07:41:43.167Z,8.30
2022-09-22T07:44:31.759Z,8.40
2022-09-22T07:47:00.159Z,8.50
2022-09-22T07:49:28.145Z,8.60
2022-09-22T07:51:57.453Z,8.70
2022-09-22T07:54:26.288Z,8.70
2022-09-22T07:56:55.998Z,8.80
2022-09-22T07:59:25.558Z,8.90
2022-09-22T08:01:54.062Z,9.00
2022-09-22T08:04:23.668Z,9.10
2022-09-22T08:06:55.456Z,9.10
2022-09-22T08:09:24.194Z,9.20
2022-09-22T08:11:52.974Z,9.30
2022-09-22T08:14:23.721Z,9.50
2022-09-22T08:16:54.164Z,9.60
2022-09-22T08:19:24.320Z,9.70
2022-09-22T08:21:53.855Z,9.80
2022-09-22T08:24:22.655Z,9.90
2022-09-22T08:26:52.793Z,10.00
2022-09-22T08:29:21.178Z,10.10
2022-09-22T08:31:51.201Z,10.20
2022-09-22T08:34:21.710Z,10.30
2022-09-22T08:36:49.748Z,10.40
2022-09-22T08:39:18.934Z,10.50
2022-09-22T08:42:05.709Z,10.60
2022-09-22T08:44:38.550Z,10.70
2022-09-22T08:47:07.127Z,10.90
2022-09-22T08:49:58.956Z,11.00
2022-09-22T08:52:32.734Z,11.10
2022-09-22T08:55:02.716Z,11.20
2022-09-22T08:57:56.914Z,11.30
2022-09-22T09:00:26.028Z,11.50
2022-09-22T09:03:04.579Z,11.50
2022-09-22T09:06:04.383Z,11.60
2022-09-22T09:09:08.670Z,11.70
2022-09-22T09:11:52.941Z,11.80
2022-09-22T09:14:36.100Z,11.90
2022-09-22T09:17:09.328Z,12.00
2022-09-22T09:19:42.034Z,12.10
2022-09-22T09:22:18.858Z,12.20
2022-09-22T09:27:42.149Z,12.40
2022-09-22T09:30:21.909Z,12.50
2022-09-22T09:32:53.561Z,12.60
2022-09-22T09:35:26.712Z,12.70
2022-09-22T09:37:58.941Z,12.70
2022-09-22T09:40:27.490Z,12.80
2022-09-22T09:43:03.275Z,12.90
2022-09-22T09:45:38.530Z,13.00
2022-09-22T09:48:20.818Z,13.10
2022-09-22T09:50:48.598Z,13.20
2022-09-22T09:53:30.962Z,13.20
2022-09-22T09:55:58.850Z,13.30
2022-09-22T09:58:44.344Z,13.40
2022-09-22T10:01:15.082Z,13.50
2022-09-22T10:03:46.719Z,13.60
2022-09-22T10:06:16.004Z,13.70
2022-09-22T10:08:46.669Z,13.80
2022-09-22T10:11:15.864Z,13.90
2022-09-22T10:13:44.865Z,14.00
2022-09-22T10:16:33.336Z,14.10
2022-09-22T10:19:19.110Z,14.10
2022-09-22T10:21:46.848Z,14.20
2022-09-22T10:24:31.357Z,14.30
2022-09-22T10:27:02.471Z,14.30
2022-09-22T10:29:33.070Z,14.40
2022-09-22T10:32:15.174Z,14.50
2022-09-22T10:37:15.391Z,14.60
2022-09-22T10:39:49.025Z,14.70
2022-09-22T10:42:24.227Z,14.80
2022-09-22T10:44:52.890Z,14.80
2022-09-22T10:47:32.286Z,14.90
2022-09-22T10:50:24.918Z,14.90
2022-09-22T10:52:57.609Z,15.00
2022-09-22T10:55:31.059Z,15.10
2022-09-22T10:58:33.923Z,15.20
2022-09-22T11:01:14.723Z,15.30
2022-09-22T11:04:20.583Z,15.40
2022-09-22T11:07:23.858Z,15.50
2022-09-22T11:10:16.506Z,15.60
2022-09-22T11:12:53.709Z,15.70
2022-09-22T11:15:34.937Z,15.80
2022-09-22T11:18:37.647Z,15.80
2022-09-22T11:21:18.851Z,15.80
2022-09-22T11:24:02.221Z,15.90
2022-09-22T11:26:47.892Z,15.90
2022-09-22T11:29:45.999Z,16.00
2022-09-22T11:32:34.082Z,16.10
2022-09-22T11:35:24.786Z,16.20
2022-09-22T11:38:05.499Z,16.30
2022-09-22T11:40:45.887Z,16.30
2022-09-22T11:43:30.545Z,16.40
2022-09-22T11:46:07.894Z,16.40
2022-09-22T11:48:51.428Z,16.50
2022-09-22T11:51:35.441Z,16.50
2022-09-22T11:54:27.022Z,16.60
2022-09-22T11:57:00.200Z,16.60
2022-09-22T11:59:38.185Z,16.70
2022-09-22T12:02:17.414Z,16.70
2022-09-22T12:04:50.036Z,16.80
2022-09-22T12:07:25.073Z,16.90
2022-09-22T12:09:56.472Z,16.90
2022-09-22T12:12:25.440Z,17.00
2022-09-22T12:14:59.848Z,17.00
2022-09-22T12:17:36.636Z,17.10
2022-09-22T12:20:20.915Z,17.10
2022-09-22T12:23:14.329Z,17.10
2022-09-22T12:25:51.540Z,17.10
2022-09-22T12:28:22.726Z,17.20
2022-09-22T12:31:05.030Z,17.20
2022-09-22T12:33:35.921Z,17.10
2022-09-22T12:36:05.006Z,16.90
2022-09-22T12:38:32.922Z,16.90
2022-09-22T12:41:04.195Z,16.90
2022-09-22T12:43:33.426Z,17.00
2022-09-22T12:46:05.765Z,17.00
2022-09-22T12:48:37.369Z,17.10
2022-09-22T12:51:30.233Z,17.20
2022-09-22T12:54:29.666Z,17.30
2022-09-22T12:56:59.679Z,17.30
2022-09-22T12:59:55.520Z,17.30
2022-09-22T13:02:31.318Z,17.20
2022-09-22T13:05:46.462Z,17.10
2022-09-22T13:08:20.035Z,16.90
2022-09-22T13:11:05.825Z,16.90
2022-09-22T13:13:41.438Z,16.80
2022-09-22T13:16:37.330Z,16.90
2022-09-22T13:19:10.770Z,16.90
2022-09-22T13:21:40.143Z,17.00
2022-09-22T13:24:19.501Z,17.10
2022-09-22T13:26:47.343Z,17.20
2022-09-22T13:29:17.188Z,17.20
2022-09-22T13:31:46.726Z,17.20
2022-09-22T13:34:28.939Z,17.30
2022-09-22T13:37:00.905Z,17.30
2022-09-22T13:39:33.985Z,17.40
2022-09-22T13:42:07.269Z,17.50
2022-09-22T13:44:39.745Z,17.50
2022-09-22T13:47:13.404Z,17.50
2022-09-22T13:49:44.119Z,17.50
2022-09-22T13:52:19.842Z,17.50
2022-09-22T13:54:50.322Z,17.50
2022-09-22T13:57:22.239Z,17.50
2022-09-22T13:59:52.062Z,17.50
2022-09-22T14:02:25.113Z,17.50
2022-09-22T14:04:59.129Z,17.50
2022-09-22T14:07:30.724Z,17.50
2022-09-22T14:10:00.132Z,17.50
2022-09-22T14:12:29.495Z,17.50
2022-09-22T14:14:57.401Z,17.50
2022-09-22T14:17:28.620Z,17.60
2022-09-22T14:19:59.707Z,17.50
2022-09-22T14:22:31.956Z,17.60
2022-09-22T14:25:01.777Z,17.50
2022-09-22T14:27:32.842Z,17.50
2022-09-22T14:30:01.255Z,17.50
2022-09-22T14:32:35.486Z,17.50
2022-09-22T14:35:06.425Z,17.50
2022-09-22T14:37:39.136Z,17.50
2022-09-22T14:40:15.275Z,17.50
2022-09-22T14:42:43.762Z,17.50
2022-09-22T14:45:21.716Z,17.50
2022-09-22T14:48:18.810Z,17.40
2022-09-22T14:50:49.300Z,17.40
2022-09-22T14:53:22.830Z,17.40
2022-09-22T14:55:52.755Z,17.30
2022-09-22T14:58:24.387Z,17.30
2022-09-22T15:01:12.258Z,17.20
2022-09-22T15:03:42.716Z,17.20
2022-09-22T15:06:12.767Z,17.10
2022-09-22T15:08:43.097Z,17.10
2022-09-22T15:11:11.392Z,16.90
2022-09-22T15:13:41.428Z,16.90
2022-09-22T15:16:36.803Z,16.90
2022-09-22T15:19:06.513Z,16.80
2022-09-22T15:21:38.128Z,16.70
2022-09-22T15:24:06.696Z,16.70
2022-09-22T15:26:34.486Z,16.60
2022-09-22T15:29:02.789Z,16.60
2022-09-22T15:31:31.180Z,16.50
2022-09-22T15:34:01.193Z,16.50
2022-09-22T15:36:32.624Z,16.40
2022-09-22T15:39:06.516Z,16.30
2022-09-22T15:41:34.700Z,16.30
2022-09-22T15:44:03.083Z,16.20
2022-09-22T15:46:34.173Z,16.20
2022-09-22T15:49:05.494Z,16.10
2022-09-22T15:51:35.462Z,16.10
2022-09-22T15:54:03.174Z,16.00
2022-09-22T15:56:31.534Z,16.00
2022-09-22T15:59:01.251Z,16.00
2022-09-22T16:01:29.774Z,15.90
2022-09-22T16:04:01.375Z,15.90
2022-09-22T16:06:29.498Z,15.90
2022-09-22T16:08:58.654Z,15.80
2022-09-22T16:11:29.438Z,15.80
2022-09-22T16:14:00.440Z,15.70
2022-09-22T16:16:29.387Z,15.60
2022-09-22T16:18:57.249Z,15.60
2022-09-22T16:21:27.199Z,15.50
2022-09-22T16:23:57.945Z,15.50
2022-09-22T16:26:31.591Z,15.50
2022-09-22T16:29:00.075Z,15.40
2022-09-22T16:31:27.892Z,15.40
2022-09-22T16:33:57.085Z,15.30
2022-09-22T16:36:26.870Z,15.30
2022-09-22T16:38:55.298Z,15.30
2022-09-22T16:41:25.096Z,15.20
2022-09-22T16:43:55.517Z,15.20
2022-09-22T16:46:29.946Z,15.10
2022-09-22T16:49:00.219Z,15.10
2022-09-22T16:51:28.939Z,15.00
2022-09-22T16:53:57.437Z,15.00
2022-09-22T16:56:27.312Z,15.00
2022-09-22T16:58:57.584Z,14.90
2022-09-22T17:01:25.966Z,14.80
2022-09-22T17:03:53.696Z,14.80
2022-09-22T17:06:25.686Z,14.70
2022-09-22T17:08:54.297Z,14.70
2022-09-22T17:11:29.333Z,14.60
2022-09-22T17:14:00.780Z,14.60
2022-09-22T17:16:30.647Z,14.50
2022-09-22T17:19:02.307Z,14.40
2022-09-22T17:21:34.270Z,14.30
2022-09-22T17:24:03.517Z,14.30
2022-09-22T17:26:33.105Z,14.20
2022-09-22T17:29:02.624Z,14.20
2022-09-22T17:31:31.842Z,14.10
2022-09-22T17:33:59.942Z,14.00
2022-09-22T17:36:29.078Z,13.90
2022-09-22T17:38:58.794Z,13.90
2022-09-22T17:41:28.045Z,13.80
2022-09-22T17:43:57.456Z,13.80
2022-09-22T17:46:28.311Z,13.70
2022-09-22T17:49:13.448Z,13.60
2022-09-22T17:52:00.574Z,13.50
2022-09-22T17:54:48.021Z,13.50
2022-09-22T17:57:17.666Z,13.40
2022-09-22T17:59:46.008Z,13.30
2022-09-22T18:02:16.478Z,13.20
2022-09-22T18:04:45.082Z,13.10
2022-09-22T18:07:17.624Z,13.10
2022-09-22T18:09:47.101Z,13.00
2022-09-22T18:12:21.387Z,12.90
2022-09-22T18:14:51.968Z,12.90
2022-09-22T18:17:23.764Z,12.80
2022-09-22T18:19:54.804Z,12.80
2022-09-22T18:22:23.920Z,12.70
2022-09-22T18:24:55.139Z,12.60
2022-09-22T18:27:23.861Z,12.70
2022-09-22T18:29:53.049Z,12.50
2022-09-22T18:32:22.109Z,12.50
2022-09-22T18:34:52.945Z,12.40
2022-09-22T18:37:21.175Z,12.40
2022-09-22T18:39:50.318Z,12.30
2022-09-22T18:42:18.945Z,12.20
2022-09-22T18:44:47.591Z,12.20
2022-09-22T18:47:17.700Z,12.20
2022-09-22T18:49:48.142Z,12.10
2022-09-22T18:52:17.958Z,12.10
2022-09-22T18:54:46.586Z,12.00
2022-09-22T18:57:14.308Z,12.00
2022-09-22T18:59:42.039Z,11.90
2022-09-22T19:02:12.118Z,11.90
2022-09-22T19:04:40.475Z,11.80
2022-09-22T19:07:27.454Z,11.70
2022-09-22T19:09:55.147Z,11.70
2022-09-22T19:12:22.921Z,11.60
2022-09-22T19:14:54.336Z,11.60
2022-09-22T19:17:24.295Z,11.50
2022-09-22T19:19:52.216Z,11.50
2022-09-22T19:22:23.158Z,11.40
2022-09-22T19:24:51.550Z,11.40
2022-09-22T19:27:20.935Z,11.30
2022-09-22T19:29:48.958Z,11.30
2022-09-22T19:32:16.681Z,11.20
2022-09-22T19:34:44.539Z,11.20
2022-09-22T19:37:12.246Z,11.20
2022-09-22T19:39:42.241Z,11.10
2022-09-22T19:42:10.062Z,11.10
2022-09-22T19:44:40.007Z,11.00
2022-09-22T19:47:07.733Z,11.00
2022-09-22T19:49:35.441Z,11.00
2022-09-22T19:52:03.599Z,10.90
2022-09-22T19:54:31.284Z,10.90
2022-09-22T19:57:00.336Z,10.80
2022-09-22T19:59:28.045Z,10.80
2022-09-22T20:01:55.833Z,10.70
2022-09-22T20:04:23.609Z,10.70
2022-09-22T20:06:51.936Z,10.60
2022-09-22T20:09:19.670Z,10.60
2022-09-22T20:11:51.826Z,10.60
2022-09-22T20:14:20.905Z,10.50
2022-09-22T20:16:49.585Z,10.40
2022-09-22T20:19:17.680Z,10.40
2022-09-22T20:21:46.486Z,10.30
2022-09-22T20:24:16.004Z,10.30
2022-09-22T20:26:44.917Z,10.20
2022-09-22T20:29:13.178Z,10.20
2022-09-22T20:31:42.919Z,10.20
2022-09-22T20:34:14.943Z,10.10
2022-09-22T20:36:43.308Z,10.00
2022-09-22T20:39:14.146Z,10.00
2022-09-22T20:41:42.086Z,10.00
2022-09-22T20:44:14.441Z,9.90
2022-09-22T20:46:44.025Z,9.90
2022-09-22T20:49:13.911Z,9.90
2022-09-22T20:51:41.824Z,9.80
2022-09-22T20:54:09.592Z,9.80
2022-09-22T20:56:40.782Z,9.80
2022-09-22T20:59:10.476Z,9.80
2022-09-22T21:01:38.250Z,9.70
2022-09-22T21:04:07.694Z,9.70
2022-09-22T21:06:35.494Z,9.70
2022-09-22T21:09:20.662Z,9.60
2022-09-22T21:11:48.376Z,9.60
2022-09-22T21:14:16.241Z,9.60
2022-09-22T21:16:43.978Z,9.60
2022-09-22T21:19:13.298Z,9.50
2022-09-22T21:21:40.990Z,9.50
2022-09-22T21:24:09.558Z,9.50
2022-09-22T21:26:37.343Z,9.40
2022-09-22T21:29:05.131Z,9.40
2022-09-22T21:31:34.701Z,9.40
2022-09-22T21:34:02.546Z,9.40
2022-09-22T21:36:31.825Z,9.30
2022-09-22T21:39:00.786Z,9.30
2022-09-22T21:41:31.139Z,9.30
2022-09-22T21:43:59.883Z,9.30
2022-09-22T21:46:29.469Z,9.20
2022-09-22T21:49:00.757Z,9.20
2022-09-22T21:51:30.057Z,9.10
2022-09-22T21:53:59.121Z,9.10
2022-09-22T21:56:26.984Z,9.10
2022-09-22T21:58:55.821Z,9.10
2022-09-22T22:01:25.509Z,9.10
2022-09-22T22:03:54.922Z,9.10
2022-09-22T22:06:26.099Z,9.00
2022-09-22T22:09:01.406Z,9.00
2022-09-22T22:11:33.579Z,9.00
2022-09-22T22:14:03.073Z,9.00
2022-09-22T22:16:32.593Z,9.00
2022-09-22T22:19:00.278Z,9.00
2022-09-22T22:21:29.679Z,9.00
2022-09-22T22:24:20.051Z,9.00
2022-09-22T22:26:51.320Z,8.90
2022-09-22T22:29:20.868Z,8.90
2022-09-22T22:31:49.866Z,8.80
2022-09-22T22:34:19.160Z,8.80
2022-09-22T22:36:47.214Z,8.80
2022-09-22T22:39:14.938Z,8.80
2022-09-22T22:41:42.693Z,8.70
2022-09-22T22:44:12.812Z,8.70
2022-09-22T22:46:40.610Z,8.70
2022-09-22T22:49:08.572Z,8.70
2022-09-22T22:51:36.654Z,8.70
2022-09-22T22:54:05.561Z,8.60
2022-09-22T22:56:34.163Z,8.60
2022-09-22T22:59:01.911Z,8.60
2022-09-22T23:01:32.430Z,8.60
2022-09-22T23:04:02.083Z,8.60
2022-09-22T23:06:31.879Z,8.60
2022-09-22T23:08:59.850Z,8.60
2022-09-22T23:11:29.771Z,8.50
2022-09-22T23:13:59.448Z,8.50
2022-09-22T23:16:29.014Z,8.50
2022-09-22T23:19:01.304Z,8.50
2022-09-22T23:21:30.597Z,8.50
2022-09-22T23:23:58.589Z,8.50
2022-09-22T23:26:27.800Z,8.50
2022-09-22T23:28:58.470Z,8.50
2022-09-22T23:31:26.933Z,8.50
2022-09-22T23:33:55.048Z,8.40
2022-09-22T23:36:25.565Z,8.40
2022-09-22T23:38:54.954Z,8.40
2022-09-22T23:41:23.277Z,8.40
2022-09-22T23:43:51.028Z,8.40
2022-09-22T23:46:19.909Z,8.40
2022-09-22T23:48:48.388Z,8.40
2022-09-22T23:51:16.166Z,8.30
2022-09-22T23:53:45.232Z,8.30
2022-09-22T23:56:13.975Z,8.30
2022-09-22T23:58:42.170Z,8.30
